Time;durP1;ratioP1;P1;durP2;ratioP2;P2;SDS_P1;SDS_P2;PMS_P1;PMS_P2;Temp;Humidity;BMP_temperature;BMP_pressure;BME280_temperature;BME280_humidity;BME280_pressure;Samples;Min_cycle;Max_cycle;Signal;HPM_P1;HPM_P2
2023/04/23 00:00:42;;;;;;;3.17;2.80;;;12.50;99.90;;;;;;5046546;28;20053;-39
2023/04/23 00:03:11;;;;;;;6.38;3.50;;;12.40;99.90;;;;;;5047254;28;20063;-40
2023/04/23 00:05:41;;;;;;;3.55;2.47;;;12.20;99.90;;;;;;5047215;28;20064;-38
2023/04/23 00:08:10;;;;;;;3.45;3.15;;;12.00;99.90;;;;;;5046604;28;20045;-43
2023/04/23 00:10:37;;;;;;;2.47;2.35;;;12.00;99.90;;;;;;5046857;28;20037;-39
2023/04/23 00:13:05;;;;;;;3.35;3.05;;;12.00;99.90;;;;;;5046853;28;20049;-41
2023/04/23 00:15:33;;;;;;;2.38;2.28;;;12.10;99.90;;;;;;5046680;28;20053;-39
2023/04/23 00:18:00;;;;;;;3.47;2.72;;;12.10;99.90;;;;;;5047545;28;20060;-40
2023/04/23 00:20:28;;;;;;;3.60;2.88;;;12.20;99.90;;;;;;5044799;28;20509;-41
2023/04/23 00:22:55;;;;;;;6.28;3.13;;;12.30;99.90;;;;;;5045936;28;20611;-39
2023/04/23 00:25:23;;;;;;;3.60;2.20;;;12.20;99.90;;;;;;5047205;28;20064;-40
2023/04/23 00:27:50;;;;;;;2.83;2.63;;;12.10;99.90;;;;;;5041420;28;20040;-39
2023/04/23 00:30:18;;;;;;;3.08;2.88;;;11.90;99.90;;;;;;5040668;28;20061;-40
2023/04/23 00:32:46;;;;;;;3.03;2.50;;;11.80;99.90;;;;;;5045655;28;20053;-42
2023/04/23 00:35:14;;;;;;;19.60;4.72;;;11.80;99.90;;;;;;5044508;28;20042;-40
2023/04/23 00:37:41;;;;;;;4.88;2.75;;;11.90;99.90;;;;;;5042563;28;20057;-42
2023/04/23 00:40:10;;;;;;;4.22;3.92;;;11.90;99.90;;;;;;5061722;28;20049;-43
2023/04/23 00:42:38;;;;;;;4.65;2.47;;;11.80;99.90;;;;;;5044059;28;20048;-39
2023/04/23 00:45:07;;;;;;;3.75;2.85;;;11.60;99.90;;;;;;5046618;28;20059;-39
2023/04/23 00:47:35;;;;;;;2.92;2.72;;;11.60;99.90;;;;;;5046517;28;20520;-39
2023/04/23 00:50:05;;;;;;;2.88;2.53;;;11.50;99.90;;;;;;5052112;28;20437;-39
2023/04/23 00:52:34;;;;;;;3.15;2.95;;;11.50;99.90;;;;;;5045378;28;20502;-43
2023/04/23 00:55:02;;;;;;;5.35;2.75;;;11.60;99.90;;;;;;5046125;28;20040;-40
2023/04/23 00:57:30;;;;;;;3.78;3.50;;;11.60;99.90;;;;;;5045390;28;20049;-39
2023/04/23 00:59:58;;;;;;;4.43;2.97;;;11.60;99.90;;;;;;5045901;28;20041;-38
2023/04/23 01:02:28;;;;;;;3.88;3.58;;;11.80;99.90;;;;;;5045192;28;20528;-41
2023/04/23 01:04:58;;;;;;;4.20;2.58;;;11.90;99.90;;;;;;5044942;28;20052;-39
2023/04/23 01:07:26;;;;;;;3.05;2.75;;;12.00;99.90;;;;;;5042340;28;20052;-40
2023/04/23 01:09:54;;;;;;;5.50;2.33;;;11.90;99.90;;;;;;5044902;28;20521;-40
2023/04/23 01:12:22;;;;;;;5.25;3.08;;;11.90;99.90;;;;;;5044862;28;20049;-39
2023/04/23 01:14:50;;;;;;;2.50;2.40;;;12.00;99.90;;;;;;5044527;28;20051;-40
2023/04/23 01:17:18;;;;;;;3.60;2.67;;;11.90;99.90;;;;;;5046411;28;20045;-39
2023/04/23 01:19:45;;;;;;;3.10;2.80;;;11.70;99.90;;;;;;5045123;28;20049;-40
2023/04/23 01:22:14;;;;;;;3.17;2.88;;;11.70;99.90;;;;;;5044525;28;20052;-39
2023/04/23 01:24:42;;;;;;;3.53;2.72;;;11.60;99.90;;;;;;5045643;28;20056;-38
2023/04/23 01:27:10;;;;;;;6.03;3.00;;;11.40;99.90;;;;;;5045351;28;20051;-41
2023/04/23 01:29:38;;;;;;;3.28;2.85;;;11.40;99.90;;;;;;5060578;28;20048;-41
2023/04/23 01:32:07;;;;;;;4.85;3.78;;;11.40;99.90;;;;;;5042896;28;20056;-40
2023/04/23 01:34:37;;;;;;;;;;;11.30;99.90;;;;;;5046486;28;20041;-39
2023/04/23 01:37:06;;;;;;;2.80;2.58;;;11.30;99.90;;;;;;5046042;28;19925;-39
2023/04/23 01:39:35;;;;;;;5.63;3.35;;;11.20;99.90;;;;;;5043275;28;20045;-41
2023/04/23 01:42:05;;;;;;;3.67;2.95;;;11.30;99.90;;;;;;5045235;28;20065;-39
2023/04/23 01:44:33;;;;;;;4.20;3.72;;;11.30;99.90;;;;;;5042660;28;20064;-39
2023/04/23 01:47:01;;;;;;;3.80;2.85;;;11.30;99.90;;;;;;5060480;28;20057;-40
2023/04/23 01:49:31;;;;;;;3.10;2.30;;;11.30;99.90;;;;;;5046375;28;20049;-39
2023/04/23 01:51:58;;;;;;;3.33;3.03;;;11.40;99.90;;;;;;5044613;28;20049;-40
2023/04/23 01:54:26;;;;;;;2.55;2.35;;;11.40;99.90;;;;;;5044336;28;20057;-40
2023/04/23 01:56:54;;;;;;;3.80;3.50;;;11.40;99.90;;;;;;5042955;28;20068;-41
2023/04/23 01:59:22;;;;;;;3.17;2.83;;;11.40;99.90;;;;;;5054621;28;20045;-38
2023/04/23 02:01:49;;;;;;;2.88;2.63;;;11.40;99.90;;;;;;5045708;28;20085;-38
2023/04/23 02:04:18;;;;;;;6.03;3.10;;;11.50;99.90;;;;;;5045539;28;20052;-38
2023/04/23 02:06:48;;;;;;;2.75;2.50;;;11.70;99.90;;;;;;5059539;28;20040;-39
2023/04/23 02:09:16;;;;;;;2.67;2.58;;;11.70;99.90;;;;;;5045499;28;20064;-38
2023/04/23 02:11:43;;;;;;;2.58;2.38;;;11.60;99.90;;;;;;5044262;28;20045;-39
2023/04/23 02:14:11;;;;;;;2.83;2.63;;;11.60;99.90;;;;;;5044446;28;20060;-40
2023/04/23 02:16:39;;;;;;;5.82;3.88;;;11.60;99.90;;;;;;5045250;28;20060;-39
2023/04/23 02:19:07;;;;;;;5.57;2.83;;;11.50;99.90;;;;;;5044893;28;20041;-39
2023/04/23 02:21:35;;;;;;;2.30;2.10;;;11.50;99.90;;;;;;5045072;28;20417;-40
2023/04/23 02:24:04;;;;;;;2.50;2.40;;;11.50;99.90;;;;;;5045000;28;20041;-38
2023/04/23 02:26:31;;;;;;;4.13;2.92;;;11.50;99.90;;;;;;5044026;28;20056;-39
2023/04/23 02:28:59;;;;;;;6.40;3.33;;;11.50;99.90;;;;;;5044889;28;20053;-39
2023/04/23 02:31:26;;;;;;;2.30;2.05;;;11.50;99.90;;;;;;5044265;28;20044;-39
2023/04/23 02:33:54;;;;;;;3.05;2.63;;;11.40;99.90;;;;;;5043453;28;20049;-38
2023/04/23 02:36:21;;;;;;;4.18;2.80;;;11.50;99.90;;;;;;5044732;28;20066;-39
2023/04/23 02:38:50;;;;;;;2.95;2.50;;;11.50;99.90;;;;;;5042545;28;20052;-39
2023/04/23 02:41:17;;;;;;;2.65;2.45;;;11.30;99.90;;;;;;5042852;28;20064;-41
2023/04/23 02:43:45;;;;;;;3.17;2.45;;;11.20;99.90;;;;;;5043021;28;20048;-42
2023/04/23 02:46:13;;;;;;;2.58;2.15;;;11.00;99.90;;;;;;5047674;28;20056;-42
2023/04/23 02:48:41;;;;;;;3.90;3.60;;;11.00;99.90;;;;;;5049005;28;20384;-40
2023/04/23 02:51:10;;;;;;;4.10;3.42;;;11.00;99.90;;;;;;5046812;28;20048;-36
2023/04/23 02:53:38;;;;;;;3.67;3.15;;;11.00;99.90;;;;;;5048537;28;20057;-35
2023/04/23 02:56:06;;;;;;;5.07;2.50;;;10.90;99.90;;;;;;5046862;28;20049;-35
2023/04/23 02:58:34;;;;;;;6.70;2.95;;;10.90;99.90;;;;;;5045481;28;20044;-35
2023/04/23 03:01:02;;;;;;;3.20;2.92;;;10.90;99.90;;;;;;5048128;28;20061;-35
2023/04/23 03:03:31;;;;;;;7.82;3.17;;;10.90;99.90;;;;;;5063047;28;20506;-36
2023/04/23 03:06:01;;;;;;;2.70;2.50;;;10.90;99.90;;;;;;5063075;28;20061;-35
2023/04/23 03:08:29;;;;;;;7.30;2.55;;;10.90;99.90;;;;;;5046915;28;20284;-35
2023/04/23 03:10:57;;;;;;;3.03;2.72;;;10.80;99.90;;;;;;5046168;28;20523;-36
2023/04/23 03:13:25;;;;;;;2.97;2.78;;;10.80;99.90;;;;;;5037582;28;20805;-36
2023/04/23 03:15:53;;;;;;;4.20;3.80;;;10.80;99.90;;;;;;5047363;28;20659;-35
2023/04/23 03:18:21;;;;;;;3.58;2.78;;;10.80;99.90;;;;;;5047674;28;20052;-48
2023/04/23 03:20:52;;;;;;;2.65;2.45;;;10.70;99.90;;;;;;5046746;28;20049;-48
2023/04/23 03:23:19;;;;;;;2.72;2.45;;;10.70;99.90;;;;;;5047128;28;20048;-48
2023/04/23 03:25:47;;;;;;;3.78;3.25;;;10.70;99.90;;;;;;5062655;28;20513;-48
2023/04/23 03:28:15;;;;;;;4.00;2.70;;;10.70;99.90;;;;;;5044487;28;20539;-48
2023/04/23 03:30:44;;;;;;;6.55;2.17;;;10.70;99.90;;;;;;5061899;28;20064;-48
2023/04/23 03:33:11;;;;;;;5.75;3.20;;;10.70;99.90;;;;;;5047683;28;20402;-48
2023/04/23 03:35:39;;;;;;;3.40;3.10;;;10.70;99.90;;;;;;5045846;28;20056;-48
2023/04/23 03:38:12;;;;;;;9.98;4.28;;;10.80;99.90;;;;;;5047287;28;20529;-48
2023/04/23 03:40:40;;;;;;;14.68;3.53;;;10.80;99.90;;;;;;5045599;28;20045;-48
2023/04/23 03:43:09;;;;;;;3.08;2.88;;;10.80;99.90;;;;;;5036493;28;20041;-47
2023/04/23 03:45:55;;;;;;;3.33;3.03;;;10.80;99.90;;;;;;5047227;28;20048;-47
2023/04/23 03:48:24;;;;;;;3.28;3.08;;;10.80;99.90;;;;;;5045555;28;20211;-47
2023/04/23 03:50:51;;;;;;;3.08;2.75;;;10.70;99.90;;;;;;5061991;28;20048;-47
2023/04/23 03:53:33;;;;;;;3.10;2.80;;;10.70;99.90;;;;;;5062202;28;20604;-47
2023/04/23 03:56:20;;;;;;;10.27;4.63;;;10.70;99.90;;;;;;5045988;28;20060;-46
2023/04/23 03:58:57;;;;;;;9.45;2.85;;;10.60;99.90;;;;;;5044081;28;20052;-47
2023/04/23 04:01:25;;;;;;;3.42;2.70;;;10.60;99.90;;;;;;5045874;28;20066;-47
2023/04/23 04:03:53;;;;;;;3.22;2.30;;;10.50;99.90;;;;;;5042841;28;20076;-47
2023/04/23 04:06:23;;;;;;;2.85;2.65;;;10.50;99.90;;;;;;5061009;28;20060;-47
2023/04/23 04:08:50;;;;;;;2.92;2.72;;;10.50;99.90;;;;;;5061599;28;20053;-47
2023/04/23 04:11:18;;;;;;;4.60;3.28;;;10.50;99.90;;;;;;5046617;28;20268;-47
2023/04/23 04:13:45;;;;;;;5.65;3.33;;;10.50;99.90;;;;;;5045536;28;20492;-47
2023/04/23 04:16:13;;;;;;;5.03;2.97;;;10.50;99.90;;;;;;5045436;28;20052;-47
2023/04/23 04:18:40;;;;;;;5.22;2.97;;;10.60;99.90;;;;;;5046175;28;20045;-47
2023/04/23 04:21:08;;;;;;;4.32;3.75;;;10.60;99.90;;;;;;5046656;28;20544;-47
2023/04/23 04:23:36;;;;;;;3.22;2.45;;;10.50;99.90;;;;;;5046156;28;20060;-47
2023/04/23 04:26:03;;;;;;;3.47;3.28;;;10.50;99.90;;;;;;5046302;28;20056;-47
2023/04/23 04:28:35;;;;;;;3.28;2.97;;;10.50;99.90;;;;;;5045352;28;20052;-47
2023/04/23 04:31:04;;;;;;;2.58;2.38;;;10.60;99.90;;;;;;5046509;28;20052;-47
2023/04/23 04:33:34;;;;;;;3.00;2.75;;;10.60;99.90;;;;;;5046544;28;20401;-47
2023/04/23 04:36:02;;;;;;;3.63;2.95;;;10.70;99.90;;;;;;5036621;28;20049;-47
2023/04/23 04:38:29;;;;;;;3.13;2.35;;;10.80;99.90;;;;;;5045771;28;20049;-47
2023/04/23 04:41:00;;;;;;;2.03;1.92;;;10.90;99.90;;;;;;5046723;28;20088;-47
2023/04/23 04:43:28;;;;;;;6.18;3.22;;;11.00;99.90;;;;;;5044692;28;20049;-47
2023/04/23 04:45:58;;;;;;;3.53;3.28;;;11.00;99.90;;;;;;5046543;28;20068;-47
2023/04/23 04:48:26;;;;;;;3.20;2.92;;;11.00;99.90;;;;;;5046352;28;20413;-47
2023/04/23 04:50:53;;;;;;;3.83;2.63;;;11.10;99.90;;;;;;5046853;28;20531;-47
2023/04/23 04:53:21;;;;;;;2.88;2.65;;;11.10;99.90;;;;;;5046709;28;20049;-47
2023/04/23 04:55:48;;;;;;;5.20;2.90;;;11.10;99.90;;;;;;5046377;28;20045;-47
2023/04/23 04:58:16;;;;;;;3.97;2.85;;;11.10;99.90;;;;;;5044962;28;20502;-47
2023/04/23 05:00:44;;;;;;;3.58;2.47;;;11.20;99.90;;;;;;5046716;28;20049;-46
2023/04/23 05:03:11;;;;;;;3.33;3.03;;;11.10;99.90;;;;;;5045935;28;20056;-47
2023/04/23 05:05:41;;;;;;;3.00;2.80;;;11.10;99.90;;;;;;5044603;28;20049;-47
2023/04/23 05:08:09;;;;;;;3.13;2.35;;;11.10;99.90;;;;;;5045016;28;20067;-47
2023/04/23 05:10:37;;;;;;;3.10;2.80;;;11.10;99.90;;;;;;5045593;28;20391;-47
2023/04/23 05:13:05;;;;;;;2.88;2.63;;;11.10;99.90;;;;;;5045238;28;20045;-47
2023/04/23 05:15:32;;;;;;;4.18;3.13;;;11.00;99.90;;;;;;5045464;28;20522;-47
2023/04/23 05:18:03;;;;;;;3.25;2.75;;;11.00;99.90;;;;;;5045970;28;20433;-47
2023/04/23 05:20:31;;;;;;;5.63;3.35;;;11.00;99.90;;;;;;5044914;28;20037;-49
2023/04/23 05:22:58;;;;;;;3.50;3.15;;;11.00;99.90;;;;;;5044554;28;20055;-47
2023/04/23 05:25:26;;;;;;;3.97;3.67;;;10.90;99.90;;;;;;5045518;28;20052;-47
2023/04/23 05:27:54;;;;;;;4.28;3.80;;;10.90;99.90;;;;;;5044209;28;20037;-47
2023/04/23 05:30:21;;;;;;;3.78;3.40;;;10.70;99.90;;;;;;5043331;28;20067;-48
2023/04/23 05:32:49;;;;;;;6.30;3.58;;;10.70;99.90;;;;;;5045245;28;20056;-47
2023/04/23 05:35:16;;;;;;;4.00;3.60;;;10.60;99.90;;;;;;5059684;28;20416;-48
2023/04/23 05:37:44;;;;;;;5.97;3.22;;;10.60;99.90;;;;;;5045394;28;20049;-47
2023/04/23 05:40:12;;;;;;;5.15;4.60;;;10.50;99.90;;;;;;5045103;28;20041;-48
2023/04/23 05:42:39;;;;;;;5.00;3.80;;;10.50;99.90;;;;;;5043534;28;20041;-48
2023/04/23 05:45:07;;;;;;;6.70;4.78;;;10.50;99.90;;;;;;5046127;28;20060;-47
2023/04/23 05:47:36;;;;;;;7.57;4.75;;;10.50;99.90;;;;;;5045222;28;20053;-47
2023/04/23 05:50:05;;;;;;;6.38;4.80;;;10.50;99.90;;;;;;5045752;28;20053;-47
2023/04/23 05:52:34;;;;;;;4.60;4.20;;;10.50;99.90;;;;;;5044800;28;20068;-47
2023/04/23 05:55:02;;;;;;;3.88;3.08;;;10.50;99.90;;;;;;5044543;28;20041;-47
2023/04/23 05:57:29;;;;;;;5.68;4.55;;;10.50;99.90;;;;;;5044047;28;20049;-47
2023/04/23 05:59:57;;;;;;;6.45;5.07;;;10.50;99.90;;;;;;5045028;28;20037;-47
2023/04/23 06:02:25;;;;;;;4.07;3.72;;;10.50;99.90;;;;;;5043520;28;20063;-47
2023/04/23 06:04:52;;;;;;;8.75;4.18;;;10.50;99.90;;;;;;5046065;28;20052;-47
2023/04/23 06:07:20;;;;;;;5.05;4.55;;;10.50;99.90;;;;;;5044733;28;20063;-47
2023/04/23 06:09:48;;;;;;;4.82;4.38;;;10.50;99.90;;;;;;5044866;28;20060;-47
2023/04/23 06:12:16;;;;;;;5.95;5.00;;;10.60;99.90;;;;;;5043432;28;20045;-47
2023/04/23 06:14:44;;;;;;;4.13;3.35;;;10.60;99.90;;;;;;5044961;28;20370;-47
2023/04/23 06:17:11;;;;;;;4.95;4.53;;;10.70;99.90;;;;;;5046135;28;20057;-47
2023/04/23 06:19:40;;;;;;;5.32;4.80;;;10.70;99.90;;;;;;5048567;28;20040;-47
2023/04/23 06:22:07;;;;;;;6.68;3.92;;;10.70;99.90;;;;;;5049593;28;20068;-47
2023/04/23 06:24:35;;;;;;;5.60;5.13;;;10.80;99.90;;;;;;5049710;28;20045;-47
2023/04/23 06:27:02;;;;;;;5.03;4.35;;;10.70;99.90;;;;;;5048786;28;20045;-47
2023/04/23 06:29:34;;;;;;;6.28;4.95;;;10.80;99.90;;;;;;5062825;28;20063;-47
2023/04/23 06:32:03;;;;;;;6.38;4.20;;;10.80;99.90;;;;;;5047342;28;20465;-47
2023/04/23 06:34:31;;;;;;;5.70;4.88;;;10.80;99.90;;;;;;5048396;28;20053;-47
2023/04/23 06:36:59;;;;;;;5.63;5.00;;;10.90;99.90;;;;;;5049304;28;20053;-47
2023/04/23 06:39:26;;;;;;;5.28;4.80;;;10.90;99.90;;;;;;5048141;28;20376;-37
2023/04/23 06:41:55;;;;;;;6.03;4.57;;;10.90;99.90;;;;;;5047412;28;20402;-37
2023/04/23 06:44:33;;;;;;;6.93;6.32;;;11.00;99.90;;;;;;5045971;28;20057;-37
2023/04/23 06:47:02;;;;;;;5.75;4.63;;;11.10;99.90;;;;;;5063178;28;20041;-38
2023/04/23 06:49:30;;;;;;;4.90;4.35;;;11.10;99.90;;;;;;5049085;28;20053;-37
2023/04/23 06:51:57;;;;;;;5.78;5.18;;;11.10;99.90;;;;;;5048387;28;20056;-37
2023/04/23 06:54:25;;;;;;;5.43;4.88;;;11.20;99.90;;;;;;5062547;28;20052;-37
2023/04/23 06:56:52;;;;;;;15.88;8.75;;;11.20;99.90;;;;;;5048132;28;20060;-38
2023/04/23 06:59:20;;;;;;;5.18;4.45;;;11.20;99.90;;;;;;5047138;28;20064;-37
2023/04/23 07:01:51;;;;;;;;;;;11.20;99.90;;;;;;5049203;28;20143;-38
2023/04/23 07:04:19;;;;;;;12.27;6.15;;;11.20;99.90;;;;;;5048788;28;19921;-37
2023/04/23 07:06:46;;;;;;;5.45;4.95;;;11.10;99.90;;;;;;5047716;28;20067;-38
2023/04/23 07:09:14;;;;;;;7.10;5.78;;;11.10;99.90;;;;;;5048908;28;20453;-39
2023/04/23 07:11:41;;;;;;;6.55;5.45;;;11.10;99.90;;;;;;5047846;28;20545;-38
2023/04/23 07:14:09;;;;;;;5.78;5.13;;;11.00;99.90;;;;;;5046598;28;20060;-38
2023/04/23 07:16:36;;;;;;;5.20;4.22;;;11.00;99.90;;;;;;5049139;28;20124;-37
2023/04/23 07:19:05;;;;;;;5.55;4.80;;;11.00;99.90;;;;;;5047661;28;20103;-37
2023/04/23 07:21:32;;;;;;;5.07;4.57;;;10.90;99.90;;;;;;5048320;28;20048;-37
2023/04/23 07:24:05;;;;;;;10.55;6.22;;;10.90;99.90;;;;;;5046810;28;20402;-36
2023/04/23 07:26:34;;;;;;;4.95;4.22;;;10.90;99.90;;;;;;5046131;28;20414;-37
2023/04/23 07:29:03;;;;;;;5.25;4.47;;;10.90;99.90;;;;;;5046573;28;20072;-38
2023/04/23 07:31:30;;;;;;;7.60;4.75;;;10.80;99.90;;;;;;5046608;28;20170;-38
2023/04/23 07:33:58;;;;;;;7.82;5.63;;;10.80;99.90;;;;;;5047603;28;20060;-37
2023/04/23 07:36:26;;;;;;;5.68;4.97;;;10.80;99.90;;;;;;5047666;28;20056;-38
2023/04/23 07:38:54;;;;;;;6.93;5.90;;;10.70;99.90;;;;;;5045236;28;20053;-38
2023/04/23 07:41:21;;;;;;;6.18;5.57;;;10.70;99.90;;;;;;5047498;28;20057;-37
2023/04/23 07:43:49;;;;;;;8.05;4.65;;;10.60;99.90;;;;;;5046704;28;20049;-37
2023/04/23 07:46:17;;;;;;;6.63;5.00;;;10.60;99.90;;;;;;5047030;28;20063;-38
2023/04/23 07:48:44;;;;;;;9.07;5.65;;;10.60;99.90;;;;;;5047399;28;20513;-38
2023/04/23 07:51:12;;;;;;;6.55;5.68;;;10.60;99.90;;;;;;5062510;28;20045;-38
2023/04/23 07:53:40;;;;;;;3.53;3.33;;;10.60;99.90;;;;;;5046747;28;20057;-37
2023/04/23 07:56:07;;;;;;;5.43;4.35;;;10.60;99.90;;;;;;5046713;28;20045;-38
2023/04/23 07:58:35;;;;;;;6.15;4.63;;;10.60;99.90;;;;;;5046273;28;20052;-37
2023/04/23 08:01:02;;;;;;;4.22;3.85;;;10.60;99.90;;;;;;5046116;28;20041;-38
2023/04/23 08:03:30;;;;;;;4.20;3.33;;;10.60;99.90;;;;;;5046415;28;20057;-38
2023/04/23 08:05:58;;;;;;;7.40;4.50;;;10.60;99.90;;;;;;5047041;28;20057;-37
2023/04/23 08:08:25;;;;;;;4.90;4.40;;;10.60;99.90;;;;;;5045899;28;20071;-38
2023/04/23 08:10:53;;;;;;;6.60;4.00;;;10.60;99.90;;;;;;5047504;28;20041;-37
2023/04/23 08:13:20;;;;;;;4.30;3.60;;;10.60;99.90;;;;;;5044816;28;20044;-38
2023/04/23 08:15:48;;;;;;;4.32;3.80;;;10.60;99.90;;;;;;5045132;28;20036;-38
2023/04/23 08:18:16;;;;;;;4.95;3.97;;;10.70;99.90;;;;;;5045667;28;20075;-37
2023/04/23 08:20:44;;;;;;;4.90;4.10;;;10.70;99.90;;;;;;5046732;28;20052;-38
2023/04/23 08:23:11;;;;;;;3.53;3.10;;;10.80;99.90;;;;;;5045989;28;20502;-38
2023/04/23 08:25:39;;;;;;;3.53;3.22;;;10.90;99.90;;;;;;5046716;28;20057;-37
2023/04/23 08:28:07;;;;;;;3.55;3.03;;;10.90;99.90;;;;;;5045914;28;20060;-37
2023/04/23 08:30:36;;;;;;;3.05;2.83;;;10.90;99.90;;;;;;5046243;28;20052;-38
2023/04/23 08:33:03;;;;;;;3.20;2.90;;;11.00;99.90;;;;;;5044170;28;20045;-39
2023/04/23 08:35:31;;;;;;;2.80;2.50;;;11.20;99.90;;;;;;5045967;28;20037;-40
2023/04/23 08:37:58;;;;;;;7.47;5.68;;;11.20;99.90;;;;;;5046326;28;20511;-38
2023/04/23 08:40:29;;;;;;;5.43;3.20;;;11.30;99.90;;;;;;5045898;28;20049;-38
2023/04/23 08:43:02;;;;;;;3.42;3.05;;;11.30;99.90;;;;;;5043662;28;20803;-38
2023/04/23 08:45:30;;;;;;;3.10;2.78;;;11.20;99.90;;;;;;5046136;28;20053;-38
2023/04/23 08:47:59;;;;;;;3.42;3.15;;;11.30;99.90;;;;;;5036583;28;20163;-38
2023/04/23 08:50:29;;;;;;;2.58;2.15;;;11.40;99.90;;;;;;5045218;28;20056;-38
2023/04/23 08:52:58;;;;;;;3.17;2.95;;;11.50;99.90;;;;;;5046204;28;20053;-37
2023/04/23 08:55:25;;;;;;;2.30;2.10;;;11.60;99.90;;;;;;5046068;28;20041;-40
2023/04/23 08:57:57;;;;;;;4.68;2.58;;;11.80;99.90;;;;;;5060628;28;20509;-39
2023/04/23 09:00:25;;;;;;;2.40;2.20;;;12.00;99.90;;;;;;5045594;28;20049;-40
2023/04/23 09:02:52;;;;;;;2.70;2.50;;;12.20;99.90;;;;;;5045334;28;20052;-38
2023/04/23 09:05:20;;;;;;;2.33;2.13;;;12.20;99.90;;;;;;5045618;28;20045;-38
2023/04/23 09:07:47;;;;;;;4.53;4.15;;;12.20;99.90;;;;;;5045369;28;20544;-38
2023/04/23 09:10:15;;;;;;;2.90;2.28;;;12.00;99.90;;;;;;5045719;28;20052;-39
2023/04/23 09:12:45;;;;;;;3.83;3.53;;;12.10;99.90;;;;;;5045606;28;20429;-38
2023/04/23 09:15:13;;;;;;;3.05;1.95;;;12.30;99.90;;;;;;5045897;28;20508;-39
2023/04/23 09:17:45;;;;;;;5.65;2.22;;;12.30;99.90;;;;;;5040347;28;20057;-38
2023/04/23 09:20:14;;;;;;;3.85;2.10;;;12.50;99.90;;;;;;5042690;28;20045;-38
2023/04/23 09:22:51;;;;;;;2.72;2.47;;;12.60;99.90;;;;;;5044750;28;20072;-40
2023/04/23 09:25:21;;;;;;;2.47;2.28;;;12.70;99.90;;;;;;5037492;28;20306;-41
2023/04/23 09:27:50;;;;;;;2.45;2.20;;;12.70;99.90;;;;;;5044731;28;20549;-42
2023/04/23 09:30:19;;;;;;;3.35;3.15;;;12.90;99.90;;;;;;5045030;28;20059;-40
2023/04/23 09:32:53;;;;;;;7.95;2.78;;;13.00;99.90;;;;;;5044934;28;20060;-38
2023/04/23 09:35:22;;;;;;;6.15;5.65;;;13.00;99.90;;;;;;5045141;28;20060;-41
2023/04/23 09:37:51;;;;;;;3.83;3.50;;;13.00;99.90;;;;;;5045730;28;20045;-39
2023/04/23 09:40:23;;;;;;;2.35;2.20;;;13.20;99.90;;;;;;5044988;28;20394;-39
2023/04/23 09:42:53;;;;;;;2.45;2.13;;;13.40;99.90;;;;;;5033569;28;20048;-42
2023/04/23 09:45:21;;;;;;;5.32;2.97;;;13.60;99.90;;;;;;5045228;28;20061;-43
2023/04/23 09:47:53;;;;;;;1.90;1.80;;;14.00;99.90;;;;;;5045052;28;20536;-39
2023/04/23 09:50:35;;;;;;;2.67;2.47;;;14.30;99.90;;;;;;5043795;28;20064;-42
2023/04/23 09:53:05;;;;;;;4.38;3.97;;;14.10;99.90;;;;;;5038311;28;20056;-40
2023/04/23 09:55:38;;;;;;;3.50;2.38;;;14.20;99.90;;;;;;5044878;28;20044;-39
2023/04/23 09:58:10;;;;;;;4.93;2.22;;;14.30;99.90;;;;;;5043321;28;20053;-40
2023/04/23 10:00:39;;;;;;;4.43;2.25;;;14.30;99.90;;;;;;5043839;28;20409;-44
2023/04/23 10:03:08;;;;;;;3.30;2.05;;;14.20;99.90;;;;;;5041335;28;20033;-38
2023/04/23 10:05:41;;;;;;;2.25;2.15;;;14.20;99.90;;;;;;5045170;28;20426;-38
2023/04/23 10:08:13;;;;;;;3.58;2.45;;;14.30;99.90;;;;;;5044353;28;20261;-45
2023/04/23 10:10:41;;;;;;;2.25;2.15;;;14.50;99.90;;;;;;5044810;28;20052;-39
2023/04/23 10:13:12;;;;;;;2.85;2.58;;;14.60;99.90;;;;;;5044580;28;20045;-39
2023/04/23 10:15:39;;;;;;;4.05;2.20;;;14.60;99.90;;;;;;5045054;28;20060;-39
2023/04/23 10:18:08;;;;;;;2.15;1.95;;;14.50;99.90;;;;;;5045535;28;20064;-40
2023/04/23 10:20:36;;;;;;;4.90;3.30;;;14.50;99.90;;;;;;5040837;28;20553;-39
2023/04/23 10:23:06;;;;;;;2.88;2.67;;;14.50;99.90;;;;;;5043378;28;20419;-41
2023/04/23 10:25:36;;;;;;;2.50;1.98;;;14.30;99.90;;;;;;5044927;28;20536;-39
2023/04/23 10:28:06;;;;;;;2.63;1.92;;;14.50;99.90;;;;;;5043655;28;20041;-42
2023/04/23 10:30:35;;;;;;;2.55;2.35;;;14.70;99.90;;;;;;5044915;28;20045;-40
2023/04/23 10:33:03;;;;;;;3.60;2.83;;;15.00;99.90;;;;;;5045709;28;20049;-46
2023/04/23 10:35:39;;;;;;;1.83;1.70;;;15.10;99.90;;;;;;5043669;28;20064;-43
2023/04/23 10:38:07;;;;;;;3.95;2.40;;;15.10;99.90;;;;;;5044919;28;20361;-45
2023/04/23 10:40:37;;;;;;;7.18;2.45;;;15.20;99.90;;;;;;5044254;28;20064;-41
2023/04/23 10:43:05;;;;;;;3.33;2.15;;;15.10;99.90;;;;;;5043081;28;20045;-40
2023/04/23 10:45:32;;;;;;;2.92;2.72;;;14.80;99.90;;;;;;5045165;28;20048;-40
2023/04/23 10:48:00;;;;;;;1.85;1.73;;;14.90;99.90;;;;;;5045011;28;20505;-40
2023/04/23 10:50:29;;;;;;;5.03;2.70;;;15.10;99.90;;;;;;5059111;28;20053;-40
2023/04/23 10:52:57;;;;;;;10.38;3.33;;;15.10;99.90;;;;;;5044624;28;20420;-40
2023/04/23 10:55:27;;;;;;;3.17;2.05;;;15.20;99.90;;;;;;5044721;28;20048;-44
2023/04/23 10:58:02;;;;;;;4.38;3.97;;;15.30;99.90;;;;;;5044372;28;20552;-41
2023/04/23 11:00:44;;;;;;;4.80;3.53;;;15.20;99.90;;;;;;5043993;28;20612;-42
2023/04/23 11:03:34;;;;;;;4.90;2.72;;;15.00;99.90;;;;;;5043416;28;20284;-40
2023/04/23 11:06:06;;;;;;;2.42;2.22;;;14.70;99.90;;;;;;5047820;28;20048;-39
2023/04/23 11:08:37;;;;;;;5.35;2.38;;;14.90;99.90;;;;;;5046657;28;20390;-39
2023/04/23 11:11:08;;;;;;;;;;;15.10;99.90;;;;;;5048172;28;20044;-40
2023/04/23 11:13:35;;;;;;;3.38;2.60;;;15.00;99.90;;;;;;5047285;28;19925;-40
2023/04/23 11:16:17;;;;;;;2.50;2.25;;;14.80;99.90;;;;;;5048109;28;20060;-45
2023/04/23 11:19:02;;;;;;;4.82;3.15;;;15.00;99.90;;;;;;5045526;28;20040;-38
2023/04/23 11:22:06;;;;;;;2.40;2.20;;;15.10;99.90;;;;;;5046691;28;20045;-41
2023/04/23 11:24:45;;;;;;;3.53;2.35;;;15.20;99.90;;;;;;5046542;28;20044;-40
2023/04/23 11:27:18;;;;;;;3.72;3.22;;;15.40;99.90;;;;;;5038656;28;20041;-40
2023/04/23 11:29:46;;;;;;;2.28;2.08;;;15.70;99.90;;;;;;5048660;28;20280;-39
2023/04/23 11:32:15;;;;;;;10.40;3.03;;;15.80;99.90;;;;;;5047122;28;20504;-40
2023/04/23 11:34:45;;;;;;;3.60;3.30;;;15.90;99.90;;;;;;5047199;28;20053;-39
2023/04/23 11:37:14;;;;;;;2.78;2.58;;;16.00;99.90;;;;;;5047768;28;20057;-43
2023/04/23 11:39:44;;;;;;;4.15;2.10;;;16.20;99.90;;;;;;5047303;28;20041;-41
2023/04/23 11:42:13;;;;;;;2.05;1.88;;;16.50;99.90;;;;;;5046228;28;20041;-39
2023/04/23 11:44:42;;;;;;;5.95;2.45;;;16.30;99.90;;;;;;5047932;28;20053;-39
2023/04/23 11:47:12;;;;;;;2.95;2.40;;;16.60;99.90;;;;;;5047578;28;20057;-43
2023/04/23 11:49:41;;;;;;;2.95;2.10;;;16.60;99.90;;;;;;5047591;28;20060;-38
2023/04/23 11:52:11;;;;;;;3.00;2.80;;;16.40;99.90;;;;;;5047058;28;20053;-39
2023/04/23 11:54:41;;;;;;;2.83;2.63;;;16.20;99.90;;;;;;5046915;28;20048;-40
2023/04/23 11:57:09;;;;;;;4.03;2.47;;;16.60;99.90;;;;;;5047718;28;20509;-38
2023/04/23 11:59:37;;;;;;;3.80;2.60;;;16.90;99.90;;;;;;5046262;28;20056;-39
2023/04/23 12:02:05;;;;;;;6.45;2.83;;;17.00;99.90;;;;;;5047278;28;20048;-39
2023/04/23 12:04:33;;;;;;;3.75;3.38;;;17.00;99.90;;;;;;5047229;28;20045;-44
2023/04/23 12:07:01;;;;;;;3.08;2.78;;;16.80;99.90;;;;;;5047050;28;20052;-42
2023/04/23 12:09:44;;;;;;;11.88;2.35;;;16.90;99.90;;;;;;5044266;28;20049;-44
2023/04/23 12:12:14;;;;;;;7.07;2.90;;;16.80;99.90;;;;;;5045829;28;20053;-39
2023/04/23 12:14:41;;;;;;;3.20;2.90;;;16.40;99.90;;;;;;5045688;28;20045;-40
2023/04/23 12:17:10;;;;;;;3.90;2.50;;;16.50;99.90;;;;;;5046388;28;20418;-39
2023/04/23 12:19:39;;;;;;;6.53;3.28;;;16.70;99.90;;;;;;5046437;28;20049;-39
2023/04/23 12:22:07;;;;;;;4.55;3.47;;;16.60;99.90;;;;;;5042329;28;20068;-38
2023/04/23 12:24:51;;;;;;;6.68;2.67;;;16.40;99.90;;;;;;5046669;28;20045;-38
2023/04/23 12:27:21;;;;;;;3.22;2.97;;;16.30;99.90;;;;;;5045543;28;20045;-39
2023/04/23 12:29:57;;;;;;;3.13;2.83;;;16.50;99.90;;;;;;5046379;28;20425;-39
2023/04/23 12:32:25;;;;;;;2.80;2.60;;;16.40;99.90;;;;;;5046455;28;20084;-38
2023/04/23 12:34:54;;;;;;;5.15;2.95;;;16.70;99.90;;;;;;5046651;28;20064;-39
2023/04/23 12:37:29;;;;;;;3.03;2.78;;;16.80;99.90;;;;;;5044915;28;20536;-39
2023/04/23 12:39:58;;;;;;;4.30;2.65;;;16.80;99.90;;;;;;5044241;28;20041;-39
2023/04/23 12:42:25;;;;;;;3.50;2.45;;;16.60;99.90;;;;;;5044959;28;20056;-38
2023/04/23 12:44:56;;;;;;;2.53;2.33;;;16.50;99.90;;;;;;5046412;28;20528;-38
2023/04/23 12:47:24;;;;;;;5.82;3.55;;;16.50;99.90;;;;;;5046617;28;20053;-41
2023/04/23 12:49:53;;;;;;;4.15;3.20;;;16.50;99.90;;;;;;5045456;28;20059;-41
2023/04/23 12:52:21;;;;;;;3.70;3.40;;;16.30;99.90;;;;;;5045284;28;20057;-39
2023/04/23 12:54:54;;;;;;;3.78;2.78;;;16.40;99.90;;;;;;5046643;28;20745;-39
2023/04/23 12:57:23;;;;;;;2.78;2.53;;;16.60;99.90;;;;;;5045836;28;20048;-40